Time;durP1;ratioP1;P1;durP2;ratioP2;P2;SDS_P1;SDS_P2;PMS_P1;PMS_P2;Temp;Humidity;BMP_temperature;BMP_pressure;BME280_temperature;BME280_humidity;BME280_pressure;Samples;Min_cycle;Max_cycle;Signal;HPM_P1;HPM_P2
2023/12/28 00:00:08;;;;;;;;;;;;;;;9.90;83.46;100833.78;5015890;28;20408;-68
2023/12/28 00:02:34;;;;;;;;;;;;;;;9.88;83.69;100829.63;5017379;28;19921;-67
2023/12/28 00:04:59;;;;;;;;;;;;;;;9.81;84.08;100837.41;5013365;28;20059;-67
2023/12/28 00:07:24;;;;;;;;;;;;;;;9.79;84.69;100835.91;5017622;28;21276;-68
2023/12/28 00:09:49;;;;;;;;;;;;;;;9.83;84.70;100837.25;5015050;28;19924;-68
2023/12/28 00:12:15;;;;;;;;;;;;;;;9.78;84.90;100831.59;5015492;28;20823;-67
2023/12/28 00:14:40;;;;;;;;;;;;;;;9.80;85.05;100835.75;5016159;28;20423;-68
2023/12/28 00:17:05;;;;;;;;;;;;;;;9.77;85.49;100837.91;5017201;28;20019;-67
2023/12/28 00:19:30;;;;;;;;;;;;;;;9.73;85.61;100844.53;5015560;28;20283;-67
2023/12/28 00:21:55;;;;;;;;;;;;;;;9.68;86.03;100844.22;5011332;28;20394;-68
2023/12/28 00:24:21;;;;;;;;;;;;;;;9.72;86.31;100843.72;5016125;28;19921;-67
2023/12/28 00:26:46;;;;;;;;;;;;;;;9.66;86.82;100846.19;5015499;28;19946;-69
2023/12/28 00:29:11;;;;;;;;;;;;;;;9.65;87.01;100847.19;5016463;28;19921;-69
2023/12/28 00:31:37;;;;;;;;;;;;;;;9.65;87.52;100852.50;5011583;28;19925;-68
2023/12/28 00:34:02;;;;;;;;;;;;;;;9.69;87.45;100843.22;5017260;28;19928;-69
2023/12/28 00:36:27;;;;;;;;;;;;;;;9.66;87.64;100859.47;5014237;28;19921;-68
2023/12/28 00:38:52;;;;;;;;;;;;;;;9.66;87.83;100862.94;5013700;28;20718;-69
2023/12/28 00:41:17;;;;;;;;;;;;;;;9.70;88.03;100861.63;5016149;28;19925;-67
2023/12/28 00:43:43;;;;;;;;;;;;;;;9.69;88.29;100859.94;5011284;28;19921;-68
2023/12/28 00:46:08;;;;;;;;;;;;;;;9.63;88.21;100840.22;5017312;28;19957;-68
2023/12/28 00:48:33;;;;;;;;;;;;;;;9.62;88.74;100858.97;5011189;28;20024;-67
2023/12/28 00:50:58;;;;;;;;;;;;;;;9.52;89.48;100852.97;5009538;28;20032;-68
2023/12/28 00:53:24;;;;;;;;;;;;;;;9.56;89.46;100860.44;5017254;28;19925;-67
2023/12/28 00:55:50;;;;;;;;;;;;;;;9.60;89.60;100867.06;5012781;28;19956;-68
2023/12/28 00:58:15;;;;;;;;;;;;;;;9.58;90.27;100873.53;5012792;28;19932;-68
2023/12/28 01:00:40;;;;;;;;;;;;;;;9.58;90.11;100873.53;5007688;28;20011;-71
2023/12/28 01:03:05;;;;;;;;;;;;;;;9.55;90.33;100882.66;5014472;28;20128;-68
2023/12/28 01:05:30;;;;;;;;;;;;;;;9.59;90.66;100877.84;5013650;28;19925;-69
2023/12/28 01:07:56;;;;;;;;;;;;;;;9.56;90.92;100879.00;5009325;28;19982;-68
2023/12/28 01:10:21;;;;;;;;;;;;;;;9.57;90.94;100885.13;5008982;28;20383;-68
2023/12/28 01:12:46;;;;;;;;;;;;;;;9.59;90.90;100878.69;5010043;28;20016;-68
2023/12/28 01:15:11;;;;;;;;;;;;;;;9.54;91.36;100882.78;5008696;28;19975;-67
2023/12/28 01:17:37;;;;;;;;;;;;;;;9.56;91.54;100897.56;5012942;28;19929;-70
2023/12/28 01:20:03;;;;;;;;;;;;;;;9.58;92.08;100887.63;5011450;28;19967;-67
2023/12/28 01:22:28;;;;;;;;;;;;;;;9.60;91.74;100900.72;5010284;28;19925;-69
2023/12/28 01:24:54;;;;;;;;;;;;;;;9.65;92.08;100905.53;5007472;28;20387;-67
2023/12/28 01:27:19;;;;;;;;;;;;;;;9.60;92.27;100922.75;5007342;28;19964;-68
2023/12/28 01:29:44;;;;;;;;;;;;;;;9.62;92.11;100915.47;5009552;28;19921;-67
2023/12/28 01:32:09;;;;;;;;;;;;;;;9.66;92.14;100901.88;5018614;28;20271;-67
2023/12/28 01:34:34;;;;;;;;;;;;;;;9.67;92.50;100914.16;5008255;28;20689;-70
2023/12/28 01:37:00;;;;;;;;;;;;;;;9.62;92.61;100907.50;5006751;28;19952;-68
2023/12/28 01:39:25;;;;;;;;;;;;;;;9.60;92.82;100901.53;5006857;28;20036;-68
2023/12/28 01:41:50;;;;;;;;;;;;;;;9.59;92.98;100902.53;5011303;28;19928;-67
2023/12/28 01:44:15;;;;;;;;;;;;;;;9.59;93.13;100902.53;5011705;28;20191;-69
2023/12/28 01:46:41;;;;;;;;;;;;;;;9.60;93.62;100898.91;5010387;28;19925;-68
2023/12/28 01:49:07;;;;;;;;;;;;;;;9.63;93.65;100906.53;5009088;28;19921;-69
2023/12/28 01:51:32;;;;;;;;;;;;;;;9.66;93.78;100917.78;5014672;28;19921;-67
2023/12/28 01:53:58;;;;;;;;;;;;;;;9.62;93.83;100917.28;5009352;28;19925;-68
2023/12/28 01:56:23;;;;;;;;;;;;;;;9.59;94.17;100914.97;5013543;28;20629;-71
2023/12/28 01:58:49;;;;;;;;;;;;;;;9.61;93.84;100918.28;5010982;28;19921;-69
2023/12/28 02:01:14;;;;;;;;;;;;;;;9.61;94.03;100927.06;5011109;28;20402;-67
2023/12/28 02:03:40;;;;;;;;;;;;;;;9.60;94.32;100925.41;5011996;28;19952;-68
2023/12/28 02:06:06;;;;;;;;;;;;;;;9.57;94.43;100919.59;5007946;28;19968;-70
2023/12/28 02:08:32;;;;;;;;;;;;;;;9.55;94.57;100916.28;5008283;28;19975;-68
2023/12/28 02:10:57;;;;;;;;;;;;;;;9.57;95.00;100917.78;5015016;28;19921;-67
2023/12/28 02:13:23;;;;;;;;;;;;;;;9.60;94.87;100919.28;5012374;28;20016;-67
2023/12/28 02:15:52;;;;;;;;;;;;;;;9.58;94.89;100922.09;5005414;28;19998;-67
2023/12/28 02:18:21;;;;;;;;;;;;;;;9.59;95.27;100912.31;5009185;28;19944;-69
2023/12/28 02:20:46;;;;;;;;;;;;;;;9.57;95.14;100917.78;5012145;28;19932;-67
2023/12/28 02:23:12;;;;;;;;;;;;;;;9.57;95.42;100899.22;5015179;28;19921;-68
2023/12/28 02:25:37;;;;;;;;;;;;;;;9.57;95.66;100904.53;5026337;28;19932;-68
2023/12/28 02:28:02;;;;;;;;;;;;;;;9.58;95.46;100913.31;5019149;28;20275;-67
2023/12/28 02:30:29;;;;;;;;;;;;;;;9.65;95.66;100895.75;5016253;28;20002;-70
2023/12/28 02:33:15;;;;;;;;;;;;;;;9.69;95.30;100896.25;5016118;28;19926;-69
2023/12/28 02:36:01;;;;;;;;;;;;;;;9.67;95.36;100893.75;5014044;28;19976;-72
2023/12/28 02:38:28;;;;;;;;;;;;;;;9.66;95.36;100889.44;5013416;28;19921;-69
2023/12/28 02:40:54;;;;;;;;;;;;;;;9.62;95.49;100888.13;5012520;28;19934;-67
2023/12/28 02:43:19;;;;;;;;;;;;;;;9.70;95.20;100884.66;5018154;28;19975;-67
2023/12/28 02:45:44;;;;;;;;;;;;;;;9.67;95.28;100896.41;5019975;28;19972;-68
2023/12/28 02:48:10;;;;;;;;;;;;;;;9.67;95.57;100899.06;5010757;28;19977;-68
2023/12/28 02:50:35;;;;;;;;;;;;;;;9.67;95.55;100882.31;5016301;28;19929;-69
2023/12/28 02:53:01;;;;;;;;;;;;;;;9.72;95.26;100887.97;5016168;28;20051;-68
2023/12/28 02:55:26;;;;;;;;;;;;;;;9.72;94.93;100888.78;5014127;28;19957;-67
2023/12/28 02:57:52;;;;;;;;;;;;;;;9.74;95.15;100886.81;5012517;28;20012;-67
2023/12/28 03:00:17;;;;;;;;;;;;;;;9.79;94.81;100884.47;5013712;28;19925;-68
2023/12/28 03:02:42;;;;;;;;;;;;;;;9.81;94.48;100884.31;5015621;28;19928;-70
2023/12/28 03:05:08;;;;;;;;;;;;;;;9.80;94.60;100875.53;5011482;28;20406;-67
2023/12/28 03:07:33;;;;;;;;;;;;;;;9.81;94.54;100894.94;5015454;28;19921;-69
2023/12/28 03:09:59;;;;;;;;;;;;;;;9.84;94.49;100886.66;5013447;28;20354;-70
2023/12/28 03:12:24;;;;;;;;;;;;;;;9.82;94.10;100892.09;5013215;28;20000;-68
2023/12/28 03:14:49;;;;;;;;;;;;;;;9.78;94.23;100882.81;5009968;28;19918;-71
2023/12/28 03:17:14;;;;;;;;;;;;;;;9.83;93.97;100890.28;5013531;28;19921;-67
2023/12/28 03:19:40;;;;;;;;;;;;;;;9.81;94.11;100892.28;5018472;28;19928;-68
2023/12/28 03:22:05;;;;;;;;;;;;;;;9.83;93.73;100890.28;5018332;28;20011;-71
2023/12/28 03:24:30;;;;;;;;;;;;;;;9.87;93.62;100902.25;5014866;28;19922;-66
2023/12/28 03:26:55;;;;;;;;;;;;;;;9.89;93.54;100914.34;5020774;28;19964;-67
2023/12/28 03:29:21;;;;;;;;;;;;;;;9.99;93.13;100902.75;5020278;28;20031;-67
2023/12/28 03:31:46;;;;;;;;;;;;;;;10.06;92.90;100906.38;5021662;28;19925;-70
2023/12/28 03:34:11;;;;;;;;;;;;;;;10.05;92.46;100887.00;5011240;28;19975;-70
2023/12/28 03:36:36;;;;;;;;;;;;;;;10.05;92.34;100907.38;5011956;28;19931;-69
2023/12/28 03:39:03;;;;;;;;;;;;;;;10.03;92.10;100912.03;5017838;28;19964;-68
2023/12/28 03:41:28;;;;;;;;;;;;;;;10.07;91.97;100886.81;5019871;28;20644;-68
2023/12/28 03:43:54;;;;;;;;;;;;;;;10.03;92.25;100872.22;5023125;28;19921;-68
2023/12/28 03:46:19;;;;;;;;;;;;;;;10.09;91.77;100890.13;5010599;28;20294;-67
2023/12/28 03:48:44;;;;;;;;;;;;;;;10.12;91.25;100887.16;5009856;28;20493;-68
2023/12/28 03:51:13;;;;;;;;;;;;;;;10.08;91.35;100875.22;5013771;28;19921;-69
2023/12/28 03:53:38;;;;;;;;;;;;;;;10.03;91.20;100861.63;5013292;28;19925;-69
2023/12/28 03:56:03;;;;;;;;;;;;;;;10.08;91.06;100878.69;5014866;28;19932;-68
2023/12/28 03:58:28;;;;;;;;;;;;;;;10.11;90.98;100888.97;5015612;28;19921;-68
2023/12/28 04:00:54;;;;;;;;;;;;;;;10.13;90.75;100892.31;5015748;28;20457;-68
2023/12/28 04:03:19;;;;;;;;;;;;;;;10.18;90.47;100881.19;5018077;28;20031;-68
2023/12/28 04:05:44;;;;;;;;;;;;;;;10.12;90.11;100888.00;5012150;28;19931;-67
2023/12/28 04:08:09;;;;;;;;;;;;;;;10.08;90.17;100889.31;5016024;28;19947;-68
2023/12/28 04:10:37;;;;;;;;;;;;;;;10.12;90.08;100892.44;5013447;28;19967;-68
2023/12/28 04:13:02;;;;;;;;;;;;;;;10.13;89.73;100897.63;5016270;28;19921;-69
2023/12/28 04:15:28;;;;;;;;;;;;;;;10.16;89.83;100901.75;5016684;28;19924;-68
2023/12/28 04:17:53;;;;;;;;;;;;;;;10.15;89.39;100890.31;5010073;28;19925;-68
2023/12/28 04:20:18;;;;;;;;;;;;;;;10.23;89.47;100898.31;5017888;28;19925;-68
2023/12/28 04:22:44;;;;;;;;;;;;;;;10.21;88.85;100892.34;5007990;28;19921;-69
2023/12/28 04:25:09;;;;;;;;;;;;;;;10.27;88.76;100890.84;5013422;28;20413;-68
2023/12/28 04:27:35;;;;;;;;;;;;;;;10.28;88.81;100895.13;5017199;28;19921;-69
2023/12/28 04:30:00;;;;;;;;;;;;;;;10.28;88.46;100881.03;5012204;28;19922;-69
2023/12/28 04:32:26;;;;;;;;;;;;;;;10.24;88.47;100878.72;5013096;28;20008;-68
2023/12/28 04:34:51;;;;;;;;;;;;;;;10.18;88.44;100882.03;5013613;28;19948;-68
2023/12/28 04:37:16;;;;;;;;;;;;;;;10.17;88.32;100892.81;5017653;28;19975;-71
2023/12/28 04:39:41;;;;;;;;;;;;;;;10.16;88.18;100884.03;5005410;28;20354;-68
2023/12/28 04:42:06;;;;;;;;;;;;;;;10.27;88.17;100892.66;5015148;28;19921;-68
2023/12/28 04:44:32;;;;;;;;;;;;;;;10.20;87.77;100905.75;5010840;28;20604;-67
2023/12/28 04:46:57;;;;;;;;;;;;;;;10.18;87.82;100907.72;5014876;28;19959;-68
2023/12/28 04:49:22;;;;;;;;;;;;;;;10.18;87.73;100884.69;5017336;28;20508;-68
2023/12/28 04:51:47;;;;;;;;;;;;;;;10.18;87.74;100889.97;5016548;28;20025;-67
2023/12/28 04:54:12;;;;;;;;;;;;;;;10.23;87.14;100916.88;5014010;28;19931;-68
2023/12/28 04:56:38;;;;;;;;;;;;;;;10.29;86.70;100903.94;5010748;28;19921;-69
2023/12/28 04:59:03;;;;;;;;;;;;;;;10.33;86.35;100891.97;5014084;28;19927;-69
2023/12/28 05:01:31;;;;;;;;;;;;;;;10.33;86.35;100887.50;5010604;28;19932;-69
2023/12/28 05:03:56;;;;;;;;;;;;;;;10.37;86.06;100906.56;5007847;28;20028;-68
2023/12/28 05:06:21;;;;;;;;;;;;;;;10.36;86.50;100910.22;5008172;28;19964;-68
2023/12/28 05:08:47;;;;;;;;;;;;;;;10.33;86.32;100907.91;5010130;28;19974;-68
2023/12/28 05:11:12;;;;;;;;;;;;;;;10.34;86.05;100914.88;5011382;28;20299;-68
2023/12/28 05:13:38;;;;;;;;;;;;;;;10.37;86.09;100909.22;5017776;28;20028;-68
2023/12/28 05:16:03;;;;;;;;;;;;;;;10.38;86.06;100913.53;5016020;28;20000;-68
2023/12/28 05:18:28;;;;;;;;;;;;;;;10.36;85.40;100899.59;5012594;28;19925;-68
2023/12/28 05:20:53;;;;;;;;;;;;;;;10.35;85.71;100904.09;5010902;28;20033;-69
2023/12/28 05:23:18;;;;;;;;;;;;;;;10.38;85.42;100913.53;5012334;28;19921;-70
2023/12/28 05:25:46;;;;;;;;;;;;;;;10.31;85.33;100924.00;5008494;28;19979;-67
2023/12/28 05:28:11;;;;;;;;;;;;;;;10.32;84.96;100911.56;5011162;28;20508;-69
2023/12/28 05:30:36;;;;;;;;;;;;;;;10.29;85.23;100930.47;5009882;28;19945;-72
2023/12/28 05:33:01;;;;;;;;;;;;;;;10.30;85.03;100906.41;5010020;28;19921;-69
2023/12/28 05:35:27;;;;;;;;;;;;;;;10.28;84.79;100928.81;5009178;28;19925;-67
2023/12/28 05:37:52;;;;;;;;;;;;;;;10.25;85.18;100924.69;5006489;28;20022;-68
2023/12/28 05:40:17;;;;;;;;;;;;;;;10.21;85.19;100924.19;5009943;28;20298;-67
2023/12/28 05:42:42;;;;;;;;;;;;;;;10.28;85.21;100923.50;5011994;28;19917;-67
2023/12/28 05:45:08;;;;;;;;;;;;;;;10.24;85.36;100918.53;5014391;28;20101;-68
2023/12/28 05:47:33;;;;;;;;;;;;;;;10.25;85.09;100916.72;5009900;28;19925;-68
2023/12/28 05:49:58;;;;;;;;;;;;;;;10.30;85.09;100919.69;5005820;28;20449;-67
2023/12/28 05:52:23;;;;;;;;;;;;;;;10.33;84.43;100923.84;5013791;28;19928;-68
2023/12/28 05:54:49;;;;;;;;;;;;;;;10.38;84.36;100930.28;5012109;28;19928;-68
2023/12/28 05:57:14;;;;;;;;;;;;;;;10.38;84.24;100919.69;5014608;28;19953;-68
2023/12/28 05:59:40;;;;;;;;;;;;;;;10.39;83.52;100931.13;5009875;28;19931;-68
2023/12/28 06:02:05;;;;;;;;;;;;;;;10.39;83.76;100926.66;5012116;28;20008;-69
2023/12/28 06:04:31;;;;;;;;;;;;;;;10.37;83.59;100936.59;5008872;28;19917;-68
2023/12/28 06:06:56;;;;;;;;;;;;;;;10.34;83.82;100952.03;5014831;28;20040;-69
2023/12/28 06:09:21;;;;;;;;;;;;;;;10.37;83.82;100933.13;5009288;28;19964;-69
2023/12/28 06:11:46;;;;;;;;;;;;;;;10.35;83.79;100937.75;5008520;28;19925;-68
2023/12/28 06:14:11;;;;;;;;;;;;;;;10.34;84.30;100933.47;5011935;28;20302;-68
2023/12/28 06:16:37;;;;;;;;;;;;;;;10.38;83.92;100917.03;5018911;28;19967;-68
2023/12/28 06:19:02;;;;;;;;;;;;;;;10.45;83.98;100919.88;5015813;28;20036;-72
2023/12/28 06:21:29;;;;;;;;;;;;;;;10.41;83.78;100934.47;5018348;28;19921;-70
2023/12/28 06:23:54;;;;;;;;;;;;;;;10.38;84.07;100956.00;5011967;28;19947;-68
2023/12/28 06:26:20;;;;;;;;;;;;;;;10.41;84.31;100942.44;5013041;28;19926;-68
2023/12/28 06:28:45;;;;;;;;;;;;;;;10.38;84.10;100932.94;5014550;28;19956;-68
2023/12/28 06:31:10;;;;;;;;;;;;;;;10.42;84.41;100944.91;5022458;28;20025;-68
2023/12/28 06:33:36;;;;;;;;;;;;;;;10.44;84.01;100950.91;5018331;28;19921;-70
2023/12/28 06:36:07;;;;;;;;;;;;;;;10.43;84.20;100928.00;5013267;28;19975;-68
2023/12/28 06:38:33;;;;;;;;;;;;;;;10.44;83.92;100950.06;5011283;28;19921;-71
2023/12/28 06:40:58;;;;;;;;;;;;;;;10.39;83.92;100961.16;5013201;28;19928;-70
2023/12/28 06:43:23;;;;;;;;;;;;;;;10.43;83.91;100967.81;5011520;28;19921;-68
2023/12/28 06:45:48;;;;;;;;;;;;;;;10.48;83.40;100936.28;5011311;28;20310;-67
2023/12/28 06:48:13;;;;;;;;;;;;;;;10.46;83.22;100938.28;5016120;28;20566;-68
2023/12/28 06:50:39;;;;;;;;;;;;;;;10.44;83.14;100944.75;5012604;28;19945;-69
2023/12/28 06:53:04;;;;;;;;;;;;;;;10.38;83.10;100958.66;5005067;28;19928;-68
2023/12/28 06:55:29;;;;;;;;;;;;;;;10.38;82.83;100937.44;5010015;28;19963;-68
2023/12/28 06:57:55;;;;;;;;;;;;;;;10.29;82.96;100949.88;5013898;28;20387;-67
2023/12/28 07:00:20;;;;;;;;;;;;;;;10.33;83.09;100968.97;5005647;28;19926;-69
2023/12/28 07:02:45;;;;;;;;;;;;;;;10.34;83.23;100963.47;5012013;28;19999;-67
2023/12/28 07:05:12;;;;;;;;;;;;;;;10.36;83.14;100973.94;5014264;28;19967;-67
2023/12/28 07:07:37;;;;;;;;;;;;;;;10.36;83.03;100953.53;5013875;28;19925;-72
2023/12/28 07:10:03;;;;;;;;;;;;;;;10.36;83.21;100966.81;5015847;28;19928;-69
2023/12/28 07:12:28;;;;;;;;;;;;;;;10.36;83.06;100968.63;5018628;28;20341;-68
2023/12/28 07:14:53;;;;;;;;;;;;;;;10.38;83.04;100987.88;5021563;28;19999;-68
2023/12/28 07:17:19;;;;;;;;;;;;;;;10.34;83.23;101008.63;5018036;28;19925;-69
2023/12/28 07:19:44;;;;;;;;;;;;;;;10.39;82.96;101005.47;5014903;28;20340;-68
2023/12/28 07:22:09;;;;;;;;;;;;;;;10.40;82.45;100994.66;5016470;28;19947;-68
2023/12/28 07:24:35;;;;;;;;;;;;;;;10.43;82.55;100981.09;5019542;28;20384;-68
2023/12/28 07:27:00;;;;;;;;;;;;;;;10.44;82.46;100997.84;5017137;28;20024;-68
2023/12/28 07:29:25;;;;;;;;;;;;;;;10.36;82.47;100979.25;5020011;28;19952;-67
2023/12/28 07:31:50;;;;;;;;;;;;;;;10.35;82.66;100996.16;5015361;28;19920;-67
2023/12/28 07:34:15;;;;;;;;;;;;;;;10.32;82.89;100999.16;5021561;28;19921;-68
2023/12/28 07:36:43;;;;;;;;;;;;;;;10.31;82.90;100989.53;5010046;28;19948;-67
2023/12/28 07:39:08;;;;;;;;;;;;;;;10.33;82.96;100998.16;5019996;28;20807;-68
2023/12/28 07:41:33;;;;;;;;;;;;;;;10.31;83.37;101000.16;5016206;28;19917;-69
2023/12/28 07:43:58;;;;;;;;;;;;;;;10.28;83.63;101017.25;5011913;28;19921;-67
2023/12/28 07:46:24;;;;;;;;;;;;;;;10.28;83.76;101019.06;5019860;28;19932;-70
2023/12/28 07:48:49;;;;;;;;;;;;;;;10.26;83.34;101026.38;5017578;28;19924;-68
2023/12/28 07:51:14;;;;;;;;;;;;;;;10.31;83.40;101037.31;5015405;28;19921;-67
2023/12/28 07:53:39;;;;;;;;;;;;;;;10.32;83.66;101031.84;5014969;28;19964;-70
2023/12/28 07:56:05;;;;;;;;;;;;;;;10.31;83.61;101042.63;5018374;28;19917;-68
2023/12/28 07:58:30;;;;;;;;;;;;;;;10.30;83.70;101044.44;5015127;28;19913;-68
2023/12/28 08:00:56;;;;;;;;;;;;;;;10.23;84.22;101033.66;5014137;28;20330;-67
2023/12/28 08:03:21;;;;;;;;;;;;;;;10.27;84.10;101049.25;5017600;28;19928;-68
2023/12/28 08:05:46;;;;;;;;;;;;;;;10.26;84.04;101050.25;5010295;28;20020;-69
2023/12/28 08:08:11;;;;;;;;;;;;;;;10.26;84.05;101037.81;5015447;28;20051;-67
2023/12/28 08:10:36;;;;;;;;;;;;;;;10.29;84.13;101034.81;5014817;28;20203;-70
2023/12/28 08:13:02;;;;;;;;;;;;;;;10.21;84.20;101033.00;5012844;28;19913;-70
2023/12/28 08:15:27;;;;;;;;;;;;;;;10.22;84.22;101042.63;5017174;28;19920;-68
2023/12/28 08:17:52;;;;;;;;;;;;;;;10.20;84.50;101041.09;5010750;28;19984;-70
2023/12/28 08:20:17;;;;;;;;;;;;;;;10.20;84.48;101030.47;5005511;28;19925;-67
2023/12/28 08:22:42;;;;;;;;;;;;;;;10.18;84.49;101046.56;5010118;28;19917;-68
2023/12/28 08:25:08;;;;;;;;;;;;;;;10.20;84.21;101025.16;5006638;28;20380;-67
2023/12/28 08:27:33;;;;;;;;;;;;;;;10.23;84.45;101011.59;5003419;28;20458;-67
2023/12/28 08:29:58;;;;;;;;;;;;;;;10.19;84.35;101008.41;5011806;28;19936;-67
2023/12/28 08:32:24;;;;;;;;;;;;;;;10.20;84.24;101020.72;5011127;28;20826;-67
2023/12/28 08:34:49;;;;;;;;;;;;;;;10.20;84.59;101033.13;5009157;28;19921;-70
2023/12/28 08:37:14;;;;;;;;;;;;;;;10.20;84.86;101022.50;5006129;28;20469;-68
2023/12/28 08:39:39;;;;;;;;;;;;;;;10.22;84.94;101042.63;5010542;28;19925;-71
2023/12/28 08:42:05;;;;;;;;;;;;;;;10.17;84.83;101036.94;5004396;28;19921;-70
2023/12/28 08:44:30;;;;;;;;;;;;;;;10.17;84.64;101049.38;5008041;28;20465;-68
2023/12/28 08:46:55;;;;;;;;;;;;;;;10.24;84.38;101051.25;5003370;28;19976;-68
2023/12/28 08:49:22;;;;;;;;;;;;;;;10.20;84.75;101052.56;5013896;28;19921;-67
2023/12/28 08:51:47;;;;;;;;;;;;;;;10.19;84.65;101068.63;5015934;28;20011;-70
2023/12/28 08:54:12;;;;;;;;;;;;;;;10.22;84.82;101061.19;5004991;28;19921;-67
2023/12/28 08:56:37;;;;;;;;;;;;;;;10.19;84.73;101060.66;5012668;28;19921;-67
2023/12/28 08:59:03;;;;;;;;;;;;;;;10.26;84.60;101076.78;5014218;28;19924;-68
2023/12/28 09:01:29;;;;;;;;;;;;;;;10.19;84.75;101079.25;5005007;28;19924;-67
2023/12/28 09:03:55;;;;;;;;;;;;;;;10.17;84.86;101075.91;5008062;28;19928;-69
2023/12/28 09:06:20;;;;;;;;;;;;;;;10.19;85.15;101081.91;5005839;28;19925;-67
2023/12/28 09:08:47;;;;;;;;;;;;;;;10.18;85.08;101070.44;5014088;28;20047;-67
2023/12/28 09:11:13;;;;;;;;;;;;;;;10.18;84.75;101065.16;5012347;28;19987;-68
2023/12/28 09:13:39;;;;;;;;;;;;;;;10.18;84.86;101069.63;5014623;28;20433;-69
2023/12/28 09:16:05;;;;;;;;;;;;;;;10.17;84.64;101082.06;5005135;28;20659;-68
2023/12/28 09:18:30;;;;;;;;;;;;;;;10.20;84.82;101075.59;5009730;28;19921;-68
2023/12/28 09:20:55;;;;;;;;;;;;;;;10.16;84.97;101088.34;5010026;28;20325;-68
2023/12/28 09:23:20;;;;;;;;;;;;;;;10.15;84.94;101068.13;5008816;28;20306;-69
2023/12/28 09:25:45;;;;;;;;;;;;;;;10.14;85.44;101081.56;5005354;28;20004;-70
2023/12/28 09:28:11;;;;;;;;;;;;;;;10.14;85.53;101093.00;5007051;28;20036;-68
2023/12/28 09:30:36;;;;;;;;;;;;;;;10.13;85.23;101088.69;5017931;28;19917;-69
2023/12/28 09:33:01;;;;;;;;;;;;;;;10.19;85.10;101096.00;5015324;28;19926;-67
2023/12/28 09:35:26;;;;;;;;;;;;;;;10.15;85.07;101101.78;5015874;28;19928;-68
2023/12/28 09:37:52;;;;;;;;;;;;;;;10.19;84.85;101093.34;5007678;28;19921;-70
2023/12/28 09:40:17;;;;;;;;;;;;;;;10.18;84.83;101101.47;5004992;28;20446;-68
2023/12/28 09:42:51;;;;;;;;;;;;;;;10.19;84.81;101103.13;5008840;28;20395;-70
2023/12/28 09:45:17;;;;;;;;;;;;;;;10.23;85.19;101102.66;5009414;28;19921;-68
2023/12/28 09:47:43;;;;;;;;;;;;;;;10.20;84.94;101115.41;5012404;28;19932;-71
2023/12/28 09:50:09;;;;;;;;;;;;;;;10.23;85.21;101113.28;5009061;28;20309;-67
2023/12/28 09:52:34;;;;;;;;;;;;;;;10.30;84.78;101133.88;5022532;28;20772;-68
2023/12/28 09:55:00;;;;;;;;;;;;;;;10.30;85.07;101152.44;5018820;28;19921;-68
2023/12/28 09:57:25;;;;;;;;;;;;;;;10.29;84.92;101150.78;5018846;28;19925;-67
2023/12/28 09:59:51;;;;;;;;;;;;;;;10.36;84.42;101157.09;5015523;28;20007;-68
2023/12/28 10:02:17;;;;;;;;;;;;;;;10.32;84.44;101119.44;5019441;28;19955;-69
2023/12/28 10:04:42;;;;;;;;;;;;;;;10.35;84.45;101129.72;5016609;28;20031;-69
2023/12/28 10:07:07;;;;;;;;;;;;;;;10.34;84.31;101128.06;5023017;28;20306;-68
2023/12/28 10:09:32;;;;;;;;;;;;;;;10.41;84.28;101125.63;5018646;28;20448;-69
2023/12/28 10:11:58;;;;;;;;;;;;;;;10.34;84.36;101129.91;5014351;28;20345;-67
2023/12/28 10:14:23;;;;;;;;;;;;;;;10.40;84.25;101123.94;5014075;28;19928;-68
2023/12/28 10:16:48;;;;;;;;;;;;;;;10.38;83.83;101148.00;5017515;28;20020;-69
2023/12/28 10:19:13;;;;;;;;;;;;;;;10.46;83.11;101124.13;5017597;28;19952;-68
2023/12/28 10:21:39;;;;;;;;;;;;;;;10.49;82.80;101134.44;5017951;28;20653;-69
2023/12/28 10:24:05;;;;;;;;;;;;;;;10.52;83.30;101136.75;5015546;28;20410;-69
2023/12/28 10:26:30;;;;;;;;;;;;;;;10.50;82.73;101130.78;5021183;28;19924;-72
2023/12/28 10:29:03;;;;;;;;;;;;;;;10.53;82.80;101135.75;5019448;28;19925;-70
2023/12/28 10:31:28;;;;;;;;;;;;;;;10.59;82.88;101130.78;5016232;28;20024;-67
2023/12/28 10:33:53;;;;;;;;;;;;;;;10.57;82.36;101120.31;5014973;28;19982;-68
2023/12/28 10:36:19;;;;;;;;;;;;;;;10.62;82.32;101119.84;5020725;28;20602;-69
2023/12/28 10:38:47;;;;;;;;;;;;;;;10.61;82.63;101126.97;5014433;28;20422;-67
2023/12/28 10:41:13;;;;;;;;;;;;;;;10.59;82.68;101113.03;5019079;28;20455;-70
2023/12/28 10:43:54;;;;;;;;;;;;;;;10.67;82.49;101121.00;5021723;28;19925;-68
2023/12/28 10:46:25;;;;;;;;;;;;;;;10.69;81.88;101115.50;5017268;28;20613;-68
2023/12/28 10:48:52;;;;;;;;;;;;;;;10.70;81.92;101128.66;5023682;28;20733;-68
2023/12/28 10:51:20;;;;;;;;;;;;;;;10.75;81.58;101106.91;5017480;28;19925;-68
2023/12/28 10:53:58;;;;;;;;;;;;;;;10.72;81.31;101124.00;5019889;28;19921;-69
2023/12/28 10:56:41;;;;;;;;;;;;;;;10.78;81.34;101127.84;5014980;28;20692;-68
2023/12/28 10:59:21;;;;;;;;;;;;;;;10.75;81.25;101123.69;5017679;28;19964;-70
2023/12/28 11:01:47;;;;;;;;;;;;;;;10.79;81.24;101119.69;5011803;28;19941;-68
2023/12/28 11:04:31;;;;;;;;;;;;;;;10.80;81.32;101100.09;5008419;28;19947;-70
2023/12/28 11:06:58;;;;;;;;;;;;;;;10.77;81.30;101116.38;5011542;28;19929;-68
2023/12/28 11:09:24;;;;;;;;;;;;;;;10.78;81.22;101095.97;5010062;28;19965;-67
2023/12/28 11:11:51;;;;;;;;;;;;;;;10.78;81.01;101102.09;5006195;28;19964;-70
2023/12/28 11:14:17;;;;;;;;;;;;;;;10.83;81.13;101093.63;5010248;28;19971;-68
2023/12/28 11:16:43;;;;;;;;;;;;;;;10.78;80.92;101086.16;5012992;28;20016;-70
2023/12/28 11:19:09;;;;;;;;;;;;;;;10.78;81.21;101099.44;5011702;28;20040;-68
2023/12/28 11:21:34;;;;;;;;;;;;;;;10.78;81.16;101102.09;5013921;28;20012;-68
2023/12/28 11:24:00;;;;;;;;;;;;;;;10.79;80.85;101087.81;5012889;28;19932;-68
2023/12/28 11:26:27;;;;;;;;;;;;;;;10.78;80.89;101101.28;5012294;28;19979;-68
2023/12/28 11:29:00;;;;;;;;;;;;;;;10.78;80.75;101091.47;5012840;28;19921;-68
2023/12/28 11:31:26;;;;;;;;;;;;;;;10.74;80.87;101084.00;5016454;28;20645;-69
2023/12/28 11:33:52;;;;;;;;;;;;;;;10.76;80.64;101082.00;5013479;28;19996;-67
2023/12/28 11:36:32;;;;;;;;;;;;;;;10.78;80.55;101087.97;5014099;28;19921;-67
2023/12/28 11:39:01;;;;;;;;;;;;;;;10.81;80.83;101088.47;5021348;28;19920;-67
2023/12/28 11:41:26;;;;;;;;;;;;;;;10.78;80.55;101093.31;5008270;28;19929;-67
2023/12/28 11:43:53;;;;;;;;;;;;;;;10.77;80.53;101089.81;5013284;28;19917;-68
2023/12/28 11:46:19;;;;;;;;;;;;;;;10.77;80.60;101076.53;5013650;28;19993;-70
2023/12/28 11:48:44;;;;;;;;;;;;;;;10.78;80.78;101069.38;5011090;28;19966;-70
2023/12/28 11:51:10;;;;;;;;;;;;;;;10.78;80.63;101061.41;5011354;28;20341;-68
2023/12/28 11:53:35;;;;;;;;;;;;;;;10.85;80.48;101059.75;5016260;28;19923;-67
2023/12/28 11:56:02;;;;;;;;;;;;;;;10.78;80.78;101062.25;5008688;28;19921;-72
2023/12/28 11:58:27;;;;;;;;;;;;;;;10.76;80.44;101052.78;5020714;28;19932;-67
2023/12/28 12:00:52;;;;;;;;;;;;;;;10.75;80.17;101073.22;5019247;28;19956;-71
2023/12/28 12:03:19;;;;;;;;;;;;;;;10.70;80.63;101064.09;5018996;28;19929;-68
2023/12/28 12:05:44;;;;;;;;;;;;;;;10.66;80.29;101066.22;5018703;28;20261;-71
2023/12/28 12:08:14;;;;;;;;;;;;;;;10.66;80.94;101060.91;5016647;28;20760;-69
2023/12/28 12:10:42;;;;;;;;;;;;;;;10.61;80.97;101060.56;5016609;28;20064;-70
2023/12/28 12:13:11;;;;;;;;;;;;;;;10.63;81.45;101053.28;5014871;28;19948;-69
2023/12/28 12:15:36;;;;;;;;;;;;;;;10.63;80.79;101063.91;5014831;28;19925;-67
2023/12/28 12:18:02;;;;;;;;;;;;;;;10.65;80.75;101058.41;5014208;28;19924;-67
2023/12/28 12:20:29;;;;;;;;;;;;;;;10.60;80.88;101064.22;5014668;28;19925;-68
2023/12/28 12:22:57;;;;;;;;;;;;;;;10.63;80.89;101055.94;5014790;28;19921;-70
2023/12/28 12:25:22;;;;;;;;;;;;;;;10.60;81.41;101048.28;5015070;28;20724;-68
2023/12/28 12:27:47;;;;;;;;;;;;;;;10.61;81.04;101039.31;5015067;28;19921;-69
2023/12/28 12:30:13;;;;;;;;;;;;;;;10.56;81.20;101039.00;5014252;28;19948;-68
2023/12/28 12:32:42;;;;;;;;;;;;;;;10.56;81.27;101044.31;5015914;28;19978;-68